createdAt,value
2023-05-24T00:02:27.155Z,2.30
2023-05-24T00:04:55.413Z,2.23
2023-05-24T00:07:23.570Z,2.67
2023-05-24T00:09:51.677Z,2.20
2023-05-24T00:12:19.760Z,2.20
2023-05-24T00:14:47.889Z,2.40
2023-05-24T00:17:16.041Z,2.17
2023-05-24T00:19:45.545Z,2.10
2023-05-24T00:22:14.094Z,2.17
2023-05-24T00:24:42.386Z,2.77
2023-05-24T00:27:11.909Z,2.60
2023-05-24T00:29:40.130Z,2.50
2023-05-24T00:32:08.635Z,2.67
2023-05-24T00:34:38.461Z,2.33
2023-05-24T00:37:08.208Z,2.43
2023-05-24T00:39:36.393Z,2.50
2023-05-24T00:42:04.795Z,2.30
2023-05-24T00:44:32.887Z,2.40
2023-05-24T00:47:01.855Z,2.40
2023-05-24T00:49:30.263Z,2.40
2023-05-24T00:51:58.572Z,2.67
2023-05-24T00:54:28.189Z,2.70
2023-05-24T00:56:56.793Z,2.07
2023-05-24T00:59:28.003Z,2.63
2023-05-24T01:01:56.492Z,2.50
2023-05-24T01:04:25.996Z,2.50
2023-05-24T01:07:09.297Z,2.50
2023-05-24T01:10:00.613Z,2.67
2023-05-24T01:12:42.692Z,2.57
2023-05-24T01:15:26.018Z,2.60
2023-05-24T01:18:06.513Z,2.57
2023-05-24T01:20:38.479Z,2.30
2023-05-24T01:23:31.083Z,2.20
2023-05-24T01:26:21.072Z,2.73
2023-05-24T01:28:51.284Z,2.30
2023-05-24T01:31:21.128Z,2.53
2023-05-24T01:33:51.004Z,2.60
2023-05-24T01:36:21.040Z,3.20
2023-05-24T01:38:51.094Z,2.70
2023-05-24T01:41:33.107Z,2.53
2023-05-24T01:44:10.969Z,3.00
2023-05-24T01:46:40.225Z,2.90
2023-05-24T01:49:20.410Z,2.83
2023-05-24T01:51:55.072Z,2.53
2023-05-24T01:54:27.534Z,2.40
2023-05-24T01:56:56.987Z,2.77
2023-05-24T01:59:29.762Z,2.20
2023-05-24T02:01:58.345Z,2.87
2023-05-24T02:04:26.852Z,2.47
2023-05-24T02:06:54.983Z,2.80
2023-05-24T02:09:23.089Z,2.93
2023-05-24T02:11:51.377Z,2.83
2023-05-24T02:14:20.017Z,2.77
2023-05-24T02:16:50.792Z,2.43
2023-05-24T02:19:20.361Z,2.57
2023-05-24T02:21:48.445Z,3.27
2023-05-24T02:24:16.548Z,2.87
2023-05-24T02:26:44.584Z,2.77
2023-05-24T02:29:12.694Z,3.10
2023-05-24T02:31:41.031Z,2.47
2023-05-24T02:34:10.472Z,2.37
2023-05-24T02:36:38.613Z,2.60
2023-05-24T02:39:07.539Z,2.77
2023-05-24T02:41:35.690Z,3.37
2023-05-24T02:44:03.823Z,2.60
2023-05-24T02:46:31.941Z,2.40
2023-05-24T02:49:00.411Z,2.60
2023-05-24T02:51:32.864Z,3.20
2023-05-24T02:54:01.140Z,2.30
2023-05-24T02:56:30.425Z,2.53
2023-05-24T02:58:58.549Z,2.83
2023-05-24T03:01:27.588Z,2.53
2023-05-24T03:03:57.878Z,2.90
2023-05-24T03:06:26.070Z,3.13
2023-05-24T03:08:55.580Z,2.77
2023-05-24T03:11:26.188Z,2.93
2023-05-24T03:13:54.213Z,2.67
2023-05-24T03:16:22.353Z,2.70
2023-05-24T03:18:51.039Z,2.77
2023-05-24T03:21:20.754Z,3.00
2023-05-24T03:23:49.240Z,3.20
2023-05-24T03:26:20.557Z,2.73
2023-05-24T03:28:50.570Z,2.77
2023-05-24T03:31:24.159Z,2.50
2023-05-24T03:33:52.350Z,2.07
2023-05-24T03:36:21.630Z,3.07
2023-05-24T03:38:49.831Z,3.00
2023-05-24T03:41:19.981Z,3.33
2023-05-24T03:43:48.136Z,3.27
2023-05-24T03:46:18.443Z,2.50
2023-05-24T03:48:46.688Z,2.60
2023-05-24T03:51:14.715Z,2.87
2023-05-24T03:53:42.827Z,2.67
2023-05-24T03:56:11.041Z,3.10
2023-05-24T03:58:40.472Z,2.87
2023-05-24T04:01:09.376Z,2.70
2023-05-24T04:03:39.333Z,2.67
2023-05-24T04:06:08.048Z,2.60
2023-05-24T04:08:36.716Z,3.13
2023-05-24T04:11:05.024Z,3.07
2023-05-24T04:13:33.111Z,2.77
2023-05-24T04:16:04.687Z,2.80
2023-05-24T04:18:32.916Z,2.60
2023-05-24T04:21:01.151Z,2.73
2023-05-24T04:23:30.773Z,2.67
2023-05-24T04:25:59.541Z,3.27
2023-05-24T04:28:27.643Z,2.70
2023-05-24T04:30:57.649Z,2.70
2023-05-24T04:33:28.010Z,2.63
2023-05-24T04:35:56.087Z,3.27
2023-05-24T04:38:24.853Z,2.77
2023-05-24T04:40:53.010Z,2.70
2023-05-24T04:43:21.038Z,3.00
2023-05-24T04:45:49.253Z,2.77
2023-05-24T04:48:17.618Z,2.67
2023-05-24T04:50:47.553Z,3.27
2023-05-24T04:53:15.704Z,2.80
2023-05-24T04:55:43.918Z,2.97
2023-05-24T04:58:12.002Z,2.70
2023-05-24T05:00:44.727Z,3.00
2023-05-24T05:03:13.276Z,3.03
2023-05-24T05:05:41.440Z,2.90
2023-05-24T05:08:10.853Z,2.83
2023-05-24T05:10:38.882Z,2.93
2023-05-24T05:13:07.138Z,3.10
2023-05-24T05:15:37.339Z,2.90
2023-05-24T05:18:05.572Z,3.00
2023-05-24T05:20:33.668Z,3.03
2023-05-24T05:23:01.758Z,2.97
2023-05-24T05:25:31.843Z,2.30
2023-05-24T05:27:59.972Z,2.83
2023-05-24T05:30:29.914Z,2.40
2023-05-24T05:32:58.336Z,2.37
2023-05-24T05:35:26.745Z,2.47
2023-05-24T05:37:54.849Z,2.63
2023-05-24T05:40:22.998Z,2.60
2023-05-24T05:42:52.414Z,3.33
2023-05-24T05:45:20.709Z,2.70
2023-05-24T05:47:48.826Z,3.00
2023-05-24T05:50:17.273Z,3.23
2023-05-24T05:52:45.330Z,2.87
2023-05-24T05:55:13.471Z,2.90
2023-05-24T05:57:41.915Z,2.40
2023-05-24T06:00:12.993Z,2.93
2023-05-24T06:02:41.074Z,3.00
2023-05-24T06:05:10.265Z,2.80
2023-05-24T06:07:38.722Z,2.90
2023-05-24T06:10:08.483Z,2.40
2023-05-24T06:12:37.995Z,2.30
2023-05-24T06:15:08.085Z,3.30
2023-05-24T06:17:38.041Z,2.70
2023-05-24T06:20:08.931Z,3.20
2023-05-24T06:22:37.675Z,2.67
2023-05-24T06:25:06.954Z,2.50
2023-05-24T06:27:35.148Z,2.43
2023-05-24T06:30:03.647Z,3.00
2023-05-24T06:32:38.558Z,3.10
2023-05-24T06:35:08.157Z,2.70
2023-05-24T06:37:36.279Z,2.90
2023-05-24T06:40:06.642Z,2.93
2023-05-24T06:42:34.686Z,2.83
2023-05-24T06:45:02.890Z,2.70
2023-05-24T06:47:31.066Z,2.80
2023-05-24T06:50:00.933Z,2.83
2023-05-24T06:52:29.578Z,2.70
2023-05-24T06:55:00.484Z,3.10
2023-05-24T06:57:28.994Z,2.90
2023-05-24T06:59:58.068Z,2.63
2023-05-24T07:02:28.552Z,3.00
2023-05-24T07:04:57.124Z,2.70
2023-05-24T07:07:26.789Z,3.37
2023-05-24T07:09:54.841Z,3.30
2023-05-24T07:12:23.446Z,2.63
2023-05-24T07:14:51.685Z,3.90
2023-05-24T07:17:19.772Z,3.83
2023-05-24T07:19:47.935Z,3.00
2023-05-24T07:22:16.518Z,3.63
2023-05-24T07:24:45.909Z,3.20
2023-05-24T07:27:13.979Z,3.17
2023-05-24T07:29:42.150Z,3.07
2023-05-24T07:32:10.246Z,3.13
2023-05-24T07:34:39.665Z,2.97
2023-05-24T07:37:07.904Z,2.87
2023-05-24T07:39:36.000Z,3.00
2023-05-24T07:42:06.368Z,2.83
2023-05-24T07:44:34.536Z,3.00
2023-05-24T07:47:03.379Z,3.00
2023-05-24T07:49:31.574Z,3.20
2023-05-24T07:52:00.200Z,2.87
2023-05-24T07:54:28.350Z,3.63
2023-05-24T07:56:57.424Z,3.10
2023-05-24T07:59:27.109Z,3.07
2023-05-24T08:01:55.145Z,3.97
2023-05-24T08:04:23.858Z,3.47
2023-05-24T08:06:52.103Z,3.37
2023-05-24T08:09:20.257Z,3.23
2023-05-24T08:11:48.313Z,3.93
2023-05-24T08:14:16.445Z,2.93
2023-05-24T08:16:46.161Z,3.60
2023-05-24T08:19:14.344Z,3.00
2023-05-24T08:21:43.632Z,3.33
2023-05-24T08:24:11.699Z,3.43
2023-05-24T08:26:39.905Z,3.50
2023-05-24T08:29:08.600Z,2.93
2023-05-24T08:31:36.636Z,2.50
2023-05-24T08:34:06.822Z,3.37
2023-05-24T08:36:34.935Z,3.07
2023-05-24T08:39:03.030Z,3.30
2023-05-24T08:41:33.127Z,3.50
2023-05-24T08:44:02.990Z,3.80
2023-05-24T08:46:31.712Z,3.23
2023-05-24T08:49:00.728Z,3.00
2023-05-24T08:51:30.760Z,3.33
2023-05-24T08:54:00.367Z,3.83
2023-05-24T08:56:29.122Z,3.43
2023-05-24T08:58:57.774Z,3.43
2023-05-24T09:01:28.971Z,3.53
2023-05-24T09:04:00.591Z,3.40
2023-05-24T09:06:30.663Z,3.47
2023-05-24T09:09:00.555Z,3.17
2023-05-24T09:11:29.621Z,2.87
2023-05-24T09:13:58.451Z,3.60
2023-05-24T09:16:26.958Z,3.30
2023-05-24T09:18:56.578Z,3.80
2023-05-24T09:21:26.085Z,3.43
2023-05-24T09:23:56.560Z,3.50
2023-05-24T09:26:24.883Z,3.60
2023-05-24T09:28:56.597Z,3.20
2023-05-24T09:31:34.677Z,3.20
2023-05-24T09:34:03.031Z,3.40
2023-05-24T09:36:33.332Z,3.37
2023-05-24T09:39:11.410Z,3.23
2023-05-24T09:41:40.391Z,3.20
2023-05-24T09:44:08.522Z,3.30
2023-05-24T09:46:38.701Z,2.80
2023-05-24T09:49:08.400Z,3.27
2023-05-24T09:51:40.251Z,3.47
2023-05-24T09:54:10.630Z,2.77
2023-05-24T09:56:41.397Z,3.20
2023-05-24T09:59:14.004Z,2.70
2023-05-24T10:01:43.402Z,3.03
2023-05-24T10:04:11.964Z,3.23
2023-05-24T10:06:42.918Z,3.50
2023-05-24T10:09:13.942Z,3.30
2023-05-24T10:11:43.873Z,2.93
2023-05-24T10:14:12.195Z,4.33
2023-05-24T10:16:40.379Z,3.30
2023-05-24T10:19:08.694Z,3.30
2023-05-24T10:21:42.180Z,3.87
2023-05-24T10:24:13.607Z,3.40
2023-05-24T10:26:42.890Z,3.17
2023-05-24T10:29:25.486Z,2.93
2023-05-24T10:31:54.915Z,3.00
2023-05-24T10:34:23.678Z,3.70
2023-05-24T10:36:51.989Z,3.40
2023-05-24T10:39:23.496Z,3.43
2023-05-24T10:41:51.967Z,3.07
2023-05-24T10:44:21.134Z,3.17
2023-05-24T10:47:12.962Z,3.33
2023-05-24T10:49:51.297Z,3.50
2023-05-24T10:52:20.247Z,3.43
2023-05-24T10:57:42.473Z,3.33
2023-05-24T11:03:03.952Z,3.10
2023-05-24T11:05:37.100Z,3.53
2023-05-24T11:08:09.392Z,3.50
2023-05-24T11:10:38.430Z,3.20
2023-05-24T11:13:10.837Z,3.43
2023-05-24T11:15:39.659Z,3.50
2023-05-24T11:18:18.167Z,3.17
2023-05-24T11:20:48.064Z,3.13
2023-05-24T11:23:17.316Z,2.97
2023-05-24T11:25:48.122Z,3.20
2023-05-24T11:28:18.257Z,3.07
2023-05-24T11:30:48.652Z,2.90
2023-05-24T11:33:18.673Z,3.60
2023-05-24T11:35:48.077Z,2.87
2023-05-24T11:38:17.527Z,3.07
2023-05-24T11:40:47.392Z,3.33
2023-05-24T11:43:19.112Z,3.17
2023-05-24T11:45:49.709Z,3.40
2023-05-24T11:48:21.209Z,3.20
2023-05-24T11:50:50.562Z,3.10
2023-05-24T11:53:20.691Z,3.27
2023-05-24T11:55:49.002Z,2.60
2023-05-24T11:58:26.194Z,3.13
2023-05-24T12:00:54.338Z,2.93
2023-05-24T12:03:23.020Z,3.37
2023-05-24T12:05:52.734Z,2.90
2023-05-24T12:08:21.224Z,3.10
2023-05-24T12:10:51.564Z,3.77
2023-05-24T12:13:24.169Z,2.90
2023-05-24T12:15:55.901Z,3.10
2023-05-24T12:18:27.039Z,3.07
2023-05-24T12:20:55.539Z,2.80
2023-05-24T12:23:29.464Z,3.37
2023-05-24T12:26:00.907Z,2.97
2023-05-24T12:28:36.671Z,3.67
2023-05-24T12:31:05.708Z,2.90
2023-05-24T12:33:34.528Z,3.33
2023-05-24T12:36:02.835Z,2.90
2023-05-24T12:38:32.914Z,3.20
2023-05-24T12:41:11.599Z,2.87
2023-05-24T12:43:44.287Z,2.43
2023-05-24T12:46:13.100Z,3.23
2023-05-24T12:48:41.189Z,3.03
2023-05-24T12:51:09.822Z,3.10
2023-05-24T12:53:37.938Z,3.20
2023-05-24T12:56:06.671Z,2.80
2023-05-24T12:58:34.725Z,2.77
2023-05-24T13:01:04.159Z,2.70
2023-05-24T13:03:32.346Z,3.13
2023-05-24T13:06:01.498Z,2.83
2023-05-24T13:08:30.117Z,3.03
2023-05-24T13:10:58.181Z,3.63
2023-05-24T13:13:26.261Z,2.90
2023-05-24T13:15:54.452Z,3.40
2023-05-24T13:18:24.345Z,3.40
2023-05-24T13:20:52.452Z,2.50
2023-05-24T13:23:25.119Z,2.77
2023-05-24T13:25:53.690Z,2.70
2023-05-24T13:28:22.140Z,2.20
2023-05-24T13:30:50.287Z,2.90
2023-05-24T13:33:18.540Z,3.07
2023-05-24T13:35:48.037Z,3.10
2023-05-24T13:38:16.277Z,3.17
2023-05-24T13:40:45.861Z,2.60
2023-05-24T13:43:14.298Z,2.63
2023-05-24T13:45:42.585Z,2.50
2023-05-24T13:48:10.687Z,2.60
2023-05-24T13:50:39.481Z,2.13
2023-05-24T13:53:09.095Z,2.03
2023-05-24T13:55:37.711Z,2.53
2023-05-24T13:58:06.408Z,2.73
2023-05-24T14:00:35.980Z,2.37
2023-05-24T14:03:05.809Z,3.10
2023-05-24T14:05:34.010Z,2.73
2023-05-24T14:08:06.467Z,2.60
2023-05-24T14:10:37.274Z,2.40
2023-05-24T14:13:29.015Z,2.50
2023-05-24T14:15:54.136Z,4.03
2023-05-24T14:18:22.251Z,2.57
2023-05-24T14:20:50.289Z,2.90
2023-05-24T14:23:18.549Z,2.43
2023-05-24T14:25:47.979Z,2.50
2023-05-24T14:28:16.216Z,2.83
2023-05-24T14:30:44.382Z,2.27
2023-05-24T14:33:13.525Z,3.00
2023-05-24T14:35:43.342Z,2.30
2023-05-24T14:38:14.284Z,2.00
2023-05-24T14:40:43.946Z,2.57
2023-05-24T14:43:13.623Z,2.50
2023-05-24T14:45:42.918Z,2.23
2023-05-24T14:48:12.689Z,2.27
2023-05-24T14:50:42.116Z,2.73
2023-05-24T14:53:12.201Z,2.03
2023-05-24T14:55:42.636Z,2.47
2023-05-24T14:58:13.240Z,2.80
2023-05-24T15:00:43.042Z,2.60
2023-05-24T15:03:12.573Z,2.80
2023-05-24T15:05:42.106Z,2.40
2023-05-24T15:08:10.943Z,2.53
2023-05-24T15:10:39.996Z,2.40
2023-05-24T15:13:08.145Z,2.87
2023-05-24T15:15:37.631Z,2.43
2023-05-24T15:18:06.048Z,3.00
2023-05-24T15:20:35.860Z,2.33
2023-05-24T15:23:10.659Z,2.30
2023-05-24T15:25:38.921Z,2.40
2023-05-24T15:28:07.226Z,2.17
2023-05-24T15:30:35.252Z,2.27
2023-05-24T15:33:04.801Z,3.10
2023-05-24T15:35:33.106Z,2.10
2023-05-24T15:38:01.286Z,2.70
2023-05-24T15:40:29.352Z,2.20
2023-05-24T15:42:57.411Z,2.07
2023-05-24T15:45:50.511Z,1.97
2023-05-24T15:48:19.952Z,2.17
2023-05-24T15:51:25.576Z,2.37
2023-05-24T15:53:36.315Z,1.97
2023-05-24T15:56:04.532Z,2.27
2023-05-24T15:58:32.616Z,2.37
2023-05-24T16:01:00.701Z,2.50
2023-05-24T16:03:30.307Z,2.27
2023-05-24T16:05:58.581Z,2.40
2023-05-24T16:08:27.889Z,2.10
2023-05-24T16:10:56.750Z,2.63
2023-05-24T16:13:24.901Z,2.60
2023-05-24T16:15:52.999Z,2.50
2023-05-24T16:18:22.777Z,2.47
2023-05-24T16:20:52.952Z,2.10
2023-05-24T16:23:23.251Z,2.20
2023-05-24T16:25:51.835Z,2.10
2023-05-24T16:28:23.838Z,2.40
2023-05-24T16:30:55.631Z,2.33
2023-05-24T16:33:24.254Z,2.10
2023-05-24T16:35:56.212Z,2.03
2023-05-24T16:38:25.462Z,2.33
2023-05-24T16:40:54.411Z,2.10
2023-05-24T16:43:22.955Z,2.37
2023-05-24T16:45:51.244Z,2.10
2023-05-24T16:48:21.274Z,2.30
2023-05-24T16:50:50.286Z,1.93
2023-05-24T16:53:46.571Z,1.70
2023-05-24T16:56:14.743Z,2.30
2023-05-24T16:58:42.799Z,1.83
2023-05-24T17:01:11.145Z,2.00
2023-05-24T17:03:39.280Z,1.60
2023-05-24T17:06:07.812Z,2.20
2023-05-24T17:08:37.453Z,1.53
2023-05-24T17:11:07.973Z,1.90
2023-05-24T17:13:36.138Z,1.90
2023-05-24T17:16:05.205Z,1.90
2023-05-24T17:18:33.437Z,2.10
2023-05-24T17:21:04.244Z,2.00
2023-05-24T17:23:34.450Z,2.10
2023-05-24T17:26:03.311Z,1.90
2023-05-24T17:28:36.268Z,1.70
2023-05-24T17:31:05.790Z,1.70
2023-05-24T17:33:33.913Z,1.80
2023-05-24T17:36:03.149Z,1.97
2023-05-24T17:38:32.953Z,1.47
2023-05-24T17:41:01.867Z,1.30
2023-05-24T17:43:32.863Z,1.83
2023-05-24T17:46:06.091Z,1.90
2023-05-24T17:48:36.999Z,2.07
2023-05-24T17:51:07.357Z,2.30
2023-05-24T17:53:35.759Z,2.10
2023-05-24T17:56:05.700Z,1.90
2023-05-24T17:58:37.230Z,1.77
2023-05-24T18:01:07.018Z,1.93
2023-05-24T18:03:37.610Z,2.13
2023-05-24T18:06:07.698Z,1.90
2023-05-24T18:08:38.308Z,1.80
2023-05-24T18:11:09.485Z,1.50
2023-05-24T18:13:40.221Z,1.53
2023-05-24T18:16:11.958Z,1.60
2023-05-24T18:18:40.990Z,1.13
2023-05-24T18:21:10.519Z,1.97
2023-05-24T18:23:38.885Z,1.57
2023-05-24T18:26:12.277Z,1.80
2023-05-24T18:28:42.659Z,1.83
2023-05-24T18:31:11.873Z,1.60
2023-05-24T18:33:40.006Z,1.60
2023-05-24T18:36:08.687Z,1.67
2023-05-24T18:38:39.849Z,1.77
2023-05-24T18:41:11.722Z,1.80
2023-05-24T18:43:42.693Z,1.53
2023-05-24T18:46:13.299Z,1.60
2023-05-24T18:48:41.706Z,1.30
2023-05-24T18:51:09.770Z,1.63
2023-05-24T18:53:37.850Z,1.70
2023-05-24T18:56:06.654Z,1.60
2023-05-24T18:58:34.685Z,1.63
2023-05-24T19:01:04.199Z,1.73
2023-05-24T19:03:32.308Z,1.30
2023-05-24T19:06:00.411Z,1.37
2023-05-24T19:08:28.472Z,1.60
2023-05-24T19:10:56.493Z,2.17
2023-05-24T19:13:25.827Z,1.60
2023-05-24T19:15:54.178Z,1.53
2023-05-24T19:18:23.531Z,1.87
2023-05-24T19:20:51.937Z,1.60
2023-05-24T19:23:20.037Z,1.60
2023-05-24T19:25:50.195Z,1.27
2023-05-24T19:28:18.457Z,1.60
2023-05-24T19:30:46.712Z,1.60
2023-05-24T19:33:14.883Z,1.37
2023-05-24T19:35:44.601Z,1.73
2023-05-24T19:38:15.053Z,1.73
2023-05-24T19:40:43.116Z,1.30
2023-05-24T19:43:11.184Z,1.53
2023-05-24T19:45:39.236Z,1.27
2023-05-24T19:48:09.480Z,1.30
2023-05-24T19:50:39.226Z,1.40
2023-05-24T19:53:08.921Z,1.50
2023-05-24T19:55:37.350Z,1.40
2023-05-24T19:58:05.453Z,1.60
2023-05-24T20:00:33.698Z,1.20
2023-05-24T20:03:01.839Z,1.20
2023-05-24T20:05:30.054Z,1.57
2023-05-24T20:07:58.176Z,1.60
2023-05-24T20:10:30.384Z,1.80
2023-05-24T20:12:58.586Z,1.30
2023-05-24T20:15:28.261Z,1.33
2023-05-24T20:17:56.645Z,1.37
2023-05-24T20:20:25.752Z,1.30
2023-05-24T20:22:54.430Z,1.60
2023-05-24T20:25:22.491Z,1.80
2023-05-24T20:27:52.058Z,1.40
2023-05-24T20:30:20.363Z,1.80
2023-05-24T20:32:48.627Z,2.10
2023-05-24T20:35:16.855Z,1.73
2023-05-24T20:37:45.096Z,1.97
2023-05-24T20:40:18.396Z,1.43
2023-05-24T20:42:46.585Z,2.00
2023-05-24T20:45:16.744Z,1.70
2023-05-24T20:47:45.104Z,2.07
2023-05-24T20:50:15.465Z,2.53
2023-05-24T20:52:43.937Z,2.10
2023-05-24T20:55:35.936Z,2.00
2023-05-24T20:58:04.004Z,1.93
2023-05-24T21:00:33.469Z,2.30
2023-05-24T21:03:01.788Z,2.10
2023-05-24T21:05:30.095Z,1.97
2023-05-24T21:07:58.771Z,2.20
2023-05-24T21:10:27.827Z,2.53
2023-05-24T21:12:55.886Z,2.37
2023-05-24T21:15:23.997Z,2.20
2023-05-24T21:17:53.368Z,2.83
2023-05-24T21:20:21.725Z,2.63
2023-05-24T21:22:50.163Z,2.17
2023-05-24T21:25:18.334Z,2.87
2023-05-24T21:27:46.344Z,2.40
2023-05-24T21:30:15.356Z,2.30
2023-05-24T21:32:43.408Z,2.23
2023-05-24T21:35:13.225Z,1.90
2023-05-24T21:37:41.258Z,2.03
2023-05-24T21:40:10.272Z,2.40
2023-05-24T21:42:38.285Z,2.27
2023-05-24T21:45:08.016Z,2.17
2023-05-24T21:47:36.445Z,2.20
2023-05-24T21:50:08.591Z,2.20
2023-05-24T21:52:37.966Z,2.40
2023-05-24T21:55:07.418Z,1.93
2023-05-24T21:57:35.782Z,2.40
2023-05-24T22:00:04.961Z,2.43
2023-05-24T22:02:33.576Z,2.33
2023-05-24T22:05:01.820Z,1.93
2023-05-24T22:07:29.871Z,1.93
2023-05-24T22:09:59.318Z,2.70
2023-05-24T22:12:27.362Z,2.37
2023-05-24T22:14:55.439Z,2.20
2023-05-24T22:17:25.681Z,2.17
2023-05-24T22:19:54.084Z,2.93
2023-05-24T22:22:22.660Z,2.53
2023-05-24T22:24:50.830Z,2.63
2023-05-24T22:27:20.835Z,2.23
2023-05-24T22:29:49.268Z,2.53
2023-05-24T22:32:17.445Z,2.30
2023-05-24T22:34:45.680Z,2.10
2023-05-24T22:37:16.550Z,2.07
2023-05-24T22:39:45.760Z,2.40
2023-05-24T22:42:13.783Z,2.30
2023-05-24T22:44:43.197Z,2.27
2023-05-24T22:47:13.920Z,1.97
2023-05-24T22:49:43.025Z,1.90
2023-05-24T22:52:11.802Z,2.20
2023-05-24T22:54:39.865Z,1.90
2023-05-24T22:57:07.916Z,2.30
2023-05-24T22:59:35.967Z,2.57
2023-05-24T23:02:05.654Z,2.50
2023-05-24T23:04:33.726Z,2.00
2023-05-24T23:07:01.849Z,2.23
2023-05-24T23:09:34.459Z,2.10
2023-05-24T23:12:07.196Z,2.40
2023-05-24T23:14:38.202Z,2.73
2023-05-24T23:17:10.297Z,2.60
2023-05-24T23:19:42.214Z,2.30
2023-05-24T23:22:11.861Z,2.53
2023-05-24T23:24:42.146Z,2.60
2023-05-24T23:27:11.031Z,2.40
2023-05-24T23:29:39.776Z,2.60
2023-05-24T23:32:10.536Z,2.17
2023-05-24T23:34:38.860Z,2.97
2023-05-24T23:37:07.154Z,2.70
2023-05-24T23:39:35.422Z,2.27
2023-05-24T23:46:33.978Z,2.50
2023-05-24T23:49:03.726Z,3.00
2023-05-24T23:51:34.543Z,2.40
2023-05-24T23:54:02.742Z,2.10
2023-05-24T23:56:31.016Z,2.17
2023-05-24T23:58:59.732Z,2.03
